Time;durP1;ratioP1;P1;durP2;ratioP2;P2;SDS_P1;SDS_P2;PMS_P1;PMS_P2;Temp;Humidity;BMP_temperature;BMP_pressure;BME280_temperature;BME280_humidity;BME280_pressure;Samples;Min_cycle;Max_cycle;Signal;HPM_P1;HPM_P2
2024/01/21 00:00:59;;;;;;;;;;;;;;;18.11;54.06;102413.50;7392583;19;1392;-37
2024/01/21 00:03:28;;;;;;;;;;;;;;;18.07;54.06;102412.81;7391523;19;1857;-37
2024/01/21 00:05:56;;;;;;;;;;;;;;;18.04;54.04;102407.63;7393441;19;1048;-37
2024/01/21 00:08:24;;;;;;;;;;;;;;;18.10;54.11;102401.91;7392481;19;1790;-37
2024/01/21 00:10:53;;;;;;;;;;;;;;;18.08;54.04;102427.91;7393111;19;1123;-39
2024/01/21 00:13:21;;;;;;;;;;;;;;;18.05;53.96;102409.38;7392674;19;1793;-37
2024/01/21 00:15:52;;;;;;;;;;;;;;;18.14;53.95;102427.56;7392873;19;1311;-38
2024/01/21 00:18:20;;;;;;;;;;;;;;;18.10;54.05;102415.31;7392520;19;1354;-39
2024/01/21 00:20:49;;;;;;;;;;;;;;;18.05;54.10;102412.06;7392075;19;1345;-38
2024/01/21 00:23:17;;;;;;;;;;;;;;;18.14;54.05;102414.16;7391910;19;1856;-37
2024/01/21 00:25:45;;;;;;;;;;;;;;;18.20;53.74;102421.84;7392378;19;1269;-37
2024/01/21 00:28:14;;;;;;;;;;;;;;;18.10;53.98;102426.00;7393388;19;1768;-38
2024/01/21 00:30:42;;;;;;;;;;;;;;;18.12;53.83;102428.59;7392987;19;1587;-39
2024/01/21 00:33:13;;;;;;;;;;;;;;;18.07;53.72;102408.31;7392706;19;1042;-38
2024/01/21 00:35:41;;;;;;;;;;;;;;;18.05;54.07;102404.88;7391333;19;1401;-39
2024/01/21 00:38:11;;;;;;;;;;;;;;;18.08;53.91;102414.53;7392582;19;1496;-37
2024/01/21 00:40:39;;;;;;;;;;;;;;;18.04;53.96;102419.19;7394094;19;1197;-37
2024/01/21 00:43:07;;;;;;;;;;;;;;;18.07;53.93;102419.03;7376299;19;1719;-39
2024/01/21 00:45:35;;;;;;;;;;;;;;;18.08;54.08;102422.56;7390193;19;1841;-37
2024/01/21 00:48:04;;;;;;;;;;;;;;;18.02;54.04;102423.78;7392050;19;1388;-38
2024/01/21 00:50:35;;;;;;;;;;;;;;;18.05;54.30;102434.31;7391264;19;1230;-38
2024/01/21 00:53:03;;;;;;;;;;;;;;;18.06;53.91;102420.00;7389871;19;1745;-38
2024/01/21 00:55:32;;;;;;;;;;;;;;;18.14;53.73;102430.25;7389574;19;1284;-38
2024/01/21 00:58:00;;;;;;;;;;;;;;;18.11;53.90;102438.47;7392265;19;1737;-38
2024/01/21 01:00:28;;;;;;;;;;;;;;;18.10;53.89;102428.69;7391568;19;1669;-37
2024/01/21 01:02:57;;;;;;;;;;;;;;;18.05;53.91;102425.44;7390997;19;1691;-38
2024/01/21 01:05:25;;;;;;;;;;;;;;;18.11;53.90;102430.44;7388583;19;1847;-38
2024/01/21 01:07:56;;;;;;;;;;;;;;;18.06;54.01;102438.75;7392476;19;1129;-39
2024/01/21 01:10:24;;;;;;;;;;;;;;;18.04;53.92;102423.69;7392840;19;1042;-37
2024/01/21 01:12:53;;;;;;;;;;;;;;;17.86;54.24;102420.25;7391303;19;1253;-38
2024/01/21 01:15:21;;;;;;;;;;;;;;;17.40;55.55;102425.50;7391668;19;1783;-38
2024/01/21 01:17:51;;;;;;;;;;;;;;;17.20;56.08;102437.28;7390690;19;1567;-37
2024/01/21 01:20:20;;;;;;;;;;;;;;;17.03;56.32;102440.84;7389282;19;1389;-38
2024/01/21 01:22:49;;;;;;;;;;;;;;;16.62;56.07;102446.53;7390231;19;1578;-38
2024/01/21 01:25:20;;;;;;;;;;;;;;;16.58;57.28;102443.16;7390479;19;1851;-37
2024/01/21 01:27:48;;;;;;;;;;;;;;;16.95;56.82;102432.38;7391527;19;1140;-37
2024/01/21 01:30:16;;;;;;;;;;;;;;;17.39;55.71;102431.78;7388866;19;1908;-37
2024/01/21 01:32:45;;;;;;;;;;;;;;;17.72;54.88;102423.69;7388756;19;1246;-38
2024/01/21 01:35:13;;;;;;;;;;;;;;;17.96;53.96;102415.25;7390069;19;1517;-37
2024/01/21 01:37:41;;;;;;;;;;;;;;;18.16;53.71;102428.31;7390363;19;1651;-37
2024/01/21 01:40:10;;;;;;;;;;;;;;;18.02;53.83;102430.94;7390963;19;1129;-37
2024/01/21 01:42:41;;;;;;;;;;;;;;;17.95;53.96;102440.31;7389002;19;1837;-37
2024/01/21 01:45:09;;;;;;;;;;;;;;;17.99;53.92;102431.16;7373852;19;1859;-37
2024/01/21 01:47:38;;;;;;;;;;;;;;;17.98;54.07;102426.72;7389044;19;1214;-37
2024/01/21 01:50:07;;;;;;;;;;;;;;;17.97;53.91;102443.75;7388114;19;1424;-37
2024/01/21 01:52:35;;;;;;;;;;;;;;;17.94;54.16;102444.78;7390350;19;1368;-37
2024/01/21 01:55:03;;;;;;;;;;;;;;;18.00;53.91;102446.25;7390888;19;1618;-37
2024/01/21 01:57:32;;;;;;;;;;;;;;;17.99;53.89;102432.00;7390260;19;1552;-37
2024/01/21 02:00:06;;;;;;;;;;;;;;;17.91;54.16;102473.56;7390330;19;1646;-37
2024/01/21 02:02:34;;;;;;;;;;;;;;;17.99;53.90;102436.50;7391082;19;974;-37
2024/01/21 02:05:04;;;;;;;;;;;;;;;17.91;54.15;102447.63;7387213;19;1868;-37
2024/01/21 02:07:32;;;;;;;;;;;;;;;17.92;53.87;102445.81;7389251;19;1476;-37
2024/01/21 02:10:01;;;;;;;;;;;;;;;17.94;53.81;102433.22;7388660;19;1935;-38
2024/01/21 02:12:30;;;;;;;;;;;;;;;17.95;54.06;102440.31;7390413;19;1792;-37
2024/01/21 02:14:58;;;;;;;;;;;;;;;17.95;53.91;102449.19;7388163;19;1251;-38
2024/01/21 02:17:29;;;;;;;;;;;;;;;17.95;53.86;102446.50;7387553;19;1848;-37
2024/01/21 02:19:57;;;;;;;;;;;;;;;17.96;53.97;102453.56;7388904;19;1301;-39
2024/01/21 02:22:26;;;;;;;;;;;;;;;17.98;53.82;102456.16;7388586;19;1733;-38
2024/01/21 02:24:57;;;;;;;;;;;;;;;17.94;53.88;102459.97;7387400;19;1864;-38
2024/01/21 02:27:26;;;;;;;;;;;;;;;18.01;53.80;102456.88;7390393;19;994;-38
2024/01/21 02:29:54;;;;;;;;;;;;;;;17.99;53.71;102441.84;7386439;19;1209;-39
2024/01/21 02:32:23;;;;;;;;;;;;;;;18.00;53.58;102446.25;7388450;19;1372;-39
2024/01/21 02:34:51;;;;;;;;;;;;;;;17.91;53.94;102457.50;7387421;19;1219;-38
2024/01/21 02:37:19;;;;;;;;;;;;;;;17.92;53.79;102437.78;7388434;19;1522;-38
2024/01/21 02:39:48;;;;;;;;;;;;;;;17.94;53.81;102476.03;7389881;19;1033;-38
2024/01/21 02:42:20;;;;;;;;;;;;;;;17.96;53.78;102450.03;7386628;19;1907;-37
2024/01/21 02:44:50;;;;;;;;;;;;;;;18.01;53.79;102477.44;7371158;19;1847;-38
2024/01/21 02:47:19;;;;;;;;;;;;;;;17.98;53.68;102457.03;7388826;19;1808;-38
2024/01/21 02:49:48;;;;;;;;;;;;;;;18.06;53.51;102469.97;7387842;19;1317;-38
2024/01/21 02:52:16;;;;;;;;;;;;;;;18.05;53.49;102463.78;7387681;19;1827;-38
2024/01/21 02:54:44;;;;;;;;;;;;;;;18.08;53.46;102465.41;7388026;19;1567;-37
2024/01/21 02:57:12;;;;;;;;;;;;;;;17.99;53.63;102480.19;7390055;19;1020;-38
2024/01/21 02:59:43;;;;;;;;;;;;;;;18.07;53.52;102477.94;7388274;19;1425;-37
2024/01/21 03:02:12;;;;;;;;;;;;;;;17.97;53.51;102479.41;7388387;19;1856;-37
2024/01/21 03:04:40;;;;;;;;;;;;;;;18.00;53.35;102486.38;7386080;19;1833;-37
2024/01/21 03:07:08;;;;;;;;;;;;;;;18.05;53.41;102473.63;7388427;19;1515;-37
2024/01/21 03:09:37;;;;;;;;;;;;;;;18.06;53.58;102491.41;7387696;19;1319;-37
2024/01/21 03:12:05;;;;;;;;;;;;;;;18.00;53.58;102491.75;7387874;19;1169;-37
2024/01/21 03:14:33;;;;;;;;;;;;;;;18.09;53.40;102476.03;7385255;19;2175;-37
2024/01/21 03:17:05;;;;;;;;;;;;;;;18.01;53.52;102493.50;7389306;19;1453;-37
2024/01/21 03:19:33;;;;;;;;;;;;;;;18.00;53.60;102455.13;7395174;19;1494;-37
2024/01/21 03:22:02;;;;;;;;;;;;;;;18.06;53.23;102486.94;7395059;19;1957;-63
2024/01/21 03:24:30;;;;;;;;;;;;;;;18.02;53.43;102487.16;7394350;19;1858;-37
2024/01/21 03:27:01;;;;;;;;;;;;;;;18.06;53.36;102494.06;7394913;19;1907;-38
2024/01/21 03:29:30;;;;;;;;;;;;;;;18.05;53.44;102489.69;7393284;19;1207;-39
2024/01/21 03:31:58;;;;;;;;;;;;;;;18.06;53.33;102486.94;7394899;19;1578;-38
2024/01/21 03:34:29;;;;;;;;;;;;;;;18.08;53.16;102489.50;7395125;19;998;-38
2024/01/21 03:36:57;;;;;;;;;;;;;;;18.02;53.47;102506.75;7394619;19;1559;-38
2024/01/21 03:39:26;;;;;;;;;;;;;;;18.05;53.37;102500.38;7394507;19;1915;-38
2024/01/21 03:41:54;;;;;;;;;;;;;;;18.07;53.21;102499.34;7391838;19;1523;-39
2024/01/21 03:44:22;;;;;;;;;;;;;;;18.04;53.38;102477.22;7376197;19;1857;-43
2024/01/21 03:46:50;;;;;;;;;;;;;;;18.07;53.21;102510.06;7394646;19;1512;-39
2024/01/21 03:49:19;;;;;;;;;;;;;;;18.10;53.21;102500.97;7394386;19;1463;-38
2024/01/21 03:51:50;;;;;;;;;;;;;;;18.07;53.13;102509.19;7395047;19;1117;-39
2024/01/21 03:54:18;;;;;;;;;;;;;;;18.05;53.27;102505.75;7394121;19;1575;-39
2024/01/21 03:56:47;;;;;;;;;;;;;;;18.04;53.54;102509.34;7393918;19;1388;-39
2024/01/21 03:59:16;;;;;;;;;;;;;;;18.01;53.39;102504.19;7393710;19;1729;-38
2024/01/21 04:01:44;;;;;;;;;;;;;;;18.13;53.16;102494.59;7394117;19;1954;-39
2024/01/21 04:04:13;;;;;;;;;;;;;;;18.31;52.82;102500.72;7393471;19;1617;-38
2024/01/21 04:06:42;;;;;;;;;;;;;;;18.57;52.35;102508.09;7390242;19;1838;-38
2024/01/21 04:09:15;;;;;;;;;;;;;;;18.73;51.91;102500.00;7392926;19;1634;-38
2024/01/21 04:11:44;;;;;;;;;;;;;;;18.84;51.77;102499.38;7392537;19;1738;-39
2024/01/21 04:14:12;;;;;;;;;;;;;;;18.80;51.86;102504.09;7393804;19;1413;-38
2024/01/21 04:16:40;;;;;;;;;;;;;;;18.81;51.79;102510.31;7393430;19;1803;-38
2024/01/21 04:19:09;;;;;;;;;;;;;;;18.91;51.60;102518.66;7393767;19;1277;-38
2024/01/21 04:21:38;;;;;;;;;;;;;;;18.91;51.46;102526.69;7393333;19;1779;-37
2024/01/21 04:24:08;;;;;;;;;;;;;;;18.50;52.29;102517.41;7393003;19;1483;-37
2024/01/21 04:26:39;;;;;;;;;;;;;;;17.87;53.62;102519.22;7390674;19;1932;-37
2024/01/21 04:29:07;;;;;;;;;;;;;;;17.50;54.62;102529.19;7391604;19;1030;-38
2024/01/21 04:31:35;;;;;;;;;;;;;;;17.27;55.18;102529.59;7392749;19;1921;-37
2024/01/21 04:34:04;;;;;;;;;;;;;;;17.17;55.50;102542.56;7393036;19;1865;-37
2024/01/21 04:36:32;;;;;;;;;;;;;;;17.21;55.58;102540.56;7391621;19;1591;-37
2024/01/21 04:39:00;;;;;;;;;;;;;;;17.80;54.20;102527.63;7392729;19;1850;-37
2024/01/21 04:41:29;;;;;;;;;;;;;;;18.29;53.22;102541.81;7392720;19;1823;-38
2024/01/21 04:44:00;;;;;;;;;;;;;;;18.44;52.72;102529.38;7385000;19;1124;-38
2024/01/21 04:46:28;;;;;;;;;;;;;;;18.48;52.71;102548.78;7391929;19;1873;-37
2024/01/21 04:48:56;;;;;;;;;;;;;;;18.52;52.58;102541.44;7392219;19;1598;-37
2024/01/21 04:51:25;;;;;;;;;;;;;;;18.57;52.47;102545.59;7391744;19;1820;-37
2024/01/21 04:53:53;;;;;;;;;;;;;;;18.52;52.57;102539.63;7390886;19;1468;-37
2024/01/21 04:56:21;;;;;;;;;;;;;;;18.54;52.56;102547.59;7392866;19;1118;-37
2024/01/21 04:58:50;;;;;;;;;;;;;;;18.55;52.70;102552.00;7392345;19;1848;-37
2024/01/21 05:01:22;;;;;;;;;;;;;;;18.54;52.52;102547.59;7392383;19;1837;-37
2024/01/21 05:03:51;;;;;;;;;;;;;;;18.59;52.53;102543.69;7392152;19;1444;-37
2024/01/21 05:06:19;;;;;;;;;;;;;;;18.55;52.43;102544.81;7390573;19;1849;-38
2024/01/21 05:08:47;;;;;;;;;;;;;;;18.55;52.52;102565.41;7390865;19;1517;-37
2024/01/21 05:11:16;;;;;;;;;;;;;;;18.56;52.67;102543.88;7391846;19;1117;-37
2024/01/21 05:13:44;;;;;;;;;;;;;;;18.58;52.54;102547.34;7392306;19;1185;-37
2024/01/21 05:16:12;;;;;;;;;;;;;;;18.61;52.51;102565.91;7391409;19;1932;-37
2024/01/21 05:18:44;;;;;;;;;;;;;;;18.57;52.56;102556.31;7391350;19;1853;-37
2024/01/21 05:21:13;;;;;;;;;;;;;;;18.54;52.69;102555.63;7390542;19;1817;-37
2024/01/21 05:23:41;;;;;;;;;;;;;;;18.60;52.59;102568.66;7390531;19;1482;-37
2024/01/21 05:26:09;;;;;;;;;;;;;;;18.62;52.48;102569.44;7388416;19;1849;-37
2024/01/21 05:28:37;;;;;;;;;;;;;;;18.67;52.32;102568.22;7390412;19;1145;-37
2024/01/21 05:31:06;;;;;;;;;;;;;;;18.62;52.42;102554.25;7391756;19;1935;-37
2024/01/21 05:33:34;;;;;;;;;;;;;;;18.66;52.26;102566.50;7391545;19;1817;-37
2024/01/21 05:36:06;;;;;;;;;;;;;;;18.66;52.42;102560.25;7388920;19;1563;-37
2024/01/21 05:38:34;;;;;;;;;;;;;;;18.65;52.25;102574.63;7391729;19;1670;-40
2024/01/21 05:41:02;;;;;;;;;;;;;;;18.69;52.36;102565.47;7390659;19;1260;-37
2024/01/21 05:43:31;;;;;;;;;;;;;;;18.62;52.42;102570.31;7391030;19;1774;-37
2024/01/21 05:45:59;;;;;;;;;;;;;;;18.71;52.19;102557.34;7373783;19;1865;-37
2024/01/21 05:48:27;;;;;;;;;;;;;;;18.71;52.30;102576.09;7390753;19;1457;-37
2024/01/21 05:50:55;;;;;;;;;;;;;;;18.73;52.28;102574.19;7389934;19;1178;-37
2024/01/21 05:53:26;;;;;;;;;;;;;;;18.71;52.28;102574.25;7390607;19;1751;-37
2024/01/21 05:55:55;;;;;;;;;;;;;;;18.77;52.39;102595.34;7389631;19;1476;-37
2024/01/21 05:58:24;;;;;;;;;;;;;;;18.77;52.18;102573.06;7389499;19;1611;-37
2024/01/21 06:00:52;;;;;;;;;;;;;;;18.74;52.18;102582.13;7389284;19;1653;-37
2024/01/21 06:03:20;;;;;;;;;;;;;;;18.71;52.18;102584.13;7390098;19;1178;-37
2024/01/21 06:05:49;;;;;;;;;;;;;;;18.74;52.09;102594.66;7386975;19;2486;-37
2024/01/21 06:08:17;;;;;;;;;;;;;;;18.72;52.23;102591.19;7389873;19;1576;-37
2024/01/21 06:10:48;;;;;;;;;;;;;;;18.73;52.21;102598.31;7391171;19;1049;-37
2024/01/21 06:13:16;;;;;;;;;;;;;;;18.70;52.17;102607.38;7389977;19;1872;-37
2024/01/21 06:15:45;;;;;;;;;;;;;;;18.76;52.17;102603.47;7389901;19;1794;-37
2024/01/21 06:18:13;;;;;;;;;;;;;;;18.76;52.19;102603.47;7389370;19;1325;-37
2024/01/21 06:20:41;;;;;;;;;;;;;;;18.72;52.18;102609.97;7388774;19;1571;-37
2024/01/21 06:23:10;;;;;;;;;;;;;;;18.79;52.23;102627.44;7388700;19;1744;-38
2024/01/21 06:25:39;;;;;;;;;;;;;;;18.73;52.23;102617.06;7387333;19;1856;-38
2024/01/21 06:28:10;;;;;;;;;;;;;;;18.74;52.27;102616.09;7389801;19;1053;-37
2024/01/21 06:30:38;;;;;;;;;;;;;;;18.68;52.18;102611.94;7387495;19;1537;-37
2024/01/21 06:33:07;;;;;;;;;;;;;;;18.65;52.49;102620.19;7388362;19;1745;-37
2024/01/21 06:35:35;;;;;;;;;;;;;;;18.61;52.44;102619.47;7387060;19;1155;-37
2024/01/21 06:38:03;;;;;;;;;;;;;;;18.48;52.60;102637.19;7386980;19;1749;-37
2024/01/21 06:40:32;;;;;;;;;;;;;;;17.94;53.54;102644.66;7389656;19;1128;-37
2024/01/21 06:43:00;;;;;;;;;;;;;;;17.62;54.31;102625.81;7388182;19;1348;-37
2024/01/21 06:45:31;;;;;;;;;;;;;;;17.39;54.89;102651.94;7373811;19;1873;-37
2024/01/21 06:48:00;;;;;;;;;;;;;;;17.27;55.17;102652.59;7388594;19;1535;-37
2024/01/21 06:50:28;;;;;;;;;;;;;;;17.22;55.74;102657.28;7387603;19;1743;-38
2024/01/21 06:52:59;;;;;;;;;;;;;;;17.54;54.97;102654.78;7390625;19;1277;-38
2024/01/21 06:55:27;;;;;;;;;;;;;;;18.13;53.71;102658.78;7394590;19;1730;-38
2024/01/21 06:57:56;;;;;;;;;;;;;;;18.55;52.49;102659.16;7395912;19;1595;-37
2024/01/21 07:00:24;;;;;;;;;;;;;;;18.66;52.15;102671.00;7396219;19;1413;-37
2024/01/21 07:02:55;;;;;;;;;;;;;;;18.66;52.19;102657.63;7396481;19;1225;-37
2024/01/21 07:05:24;;;;;;;;;;;;;;;18.77;52.19;102682.94;7395651;19;941;-37
2024/01/21 07:07:52;;;;;;;;;;;;;;;18.75;52.01;102664.25;7395597;19;1550;-37
2024/01/21 07:10:21;;;;;;;;;;;;;;;18.71;52.15;102669.88;7395920;19;1425;-37
2024/01/21 07:12:49;;;;;;;;;;;;;;;18.59;52.33;102693.75;7393889;19;1499;-37
2024/01/21 07:15:17;;;;;;;;;;;;;;;18.53;52.34;102683.38;7394883;19;1829;-37
2024/01/21 07:17:46;;;;;;;;;;;;;;;18.66;52.13;102688.88;7393730;19;1478;-37
2024/01/21 07:20:17;;;;;;;;;;;;;;;18.84;51.77;102673.59;7393696;19;1416;-38
2024/01/21 07:22:45;;;;;;;;;;;;;;;19.01;51.26;102668.13;7394761;19;1340;-37
2024/01/21 07:25:15;;;;;;;;;;;;;;;18.80;51.93;102674.75;7395902;19;1056;-37
2024/01/21 07:27:45;;;;;;;;;;;;;;;18.74;51.90;102677.75;7390628;19;1957;-37
2024/01/21 07:30:14;;;;;;;;;;;;;;;18.73;52.09;102690.28;7394067;19;1848;-37
2024/01/21 07:32:42;;;;;;;;;;;;;;;18.78;51.92;102684.66;7393662;19;1726;-37
2024/01/21 07:35:11;;;;;;;;;;;;;;;18.78;52.20;102688.22;7394348;19;1249;-37
2024/01/21 07:37:42;;;;;;;;;;;;;;;18.74;52.19;102691.13;7394205;19;1613;-37
2024/01/21 07:40:11;;;;;;;;;;;;;;;18.74;52.05;102683.97;7394903;19;1122;-37
2024/01/21 07:42:39;;;;;;;;;;;;;;;18.83;51.92;102658.50;7392207;19;1814;-37
2024/01/21 07:45:08;;;;;;;;;;;;;;;18.86;52.00;102685.09;7379288;19;1559;-38
2024/01/21 07:47:37;;;;;;;;;;;;;;;18.83;51.81;102680.78;7390193;19;1856;-37
2024/01/21 07:50:06;;;;;;;;;;;;;;;18.84;51.88;102665.56;7393835;19;1532;-37
2024/01/21 07:52:34;;;;;;;;;;;;;;;18.84;51.87;102692.38;7393851;19;1769;-37
2024/01/21 07:55:05;;;;;;;;;;;;;;;18.85;51.93;102696.78;7390998;19;1455;-37
2024/01/21 07:57:34;;;;;;;;;;;;;;;18.83;51.98;102696.88;7394169;19;1829;-37
2024/01/21 08:00:02;;;;;;;;;;;;;;;18.82;51.86;102695.16;7394249;19;1510;-37
2024/01/21 08:02:31;;;;;;;;;;;;;;;18.86;51.91;102694.03;7391476;19;1928;-37
2024/01/21 08:04:59;;;;;;;;;;;;;;;18.86;51.99;102687.78;7392594;19;1151;-37
2024/01/21 08:07:28;;;;;;;;;;;;;;;18.91;51.64;102690.22;7391331;19;1859;-37
2024/01/21 08:09:57;;;;;;;;;;;;;;;18.80;52.03;102696.19;7393821;19;1121;-37
2024/01/21 08:12:28;;;;;;;;;;;;;;;18.72;52.31;102709.13;7393618;19;1616;-37
2024/01/21 08:14:56;;;;;;;;;;;;;;;18.66;52.29;102705.84;7392555;19;1942;-38
2024/01/21 08:17:25;;;;;;;;;;;;;;;18.74;52.14;102699.19;7393283;19;1225;-39
2024/01/21 08:19:53;;;;;;;;;;;;;;;18.78;51.87;102696.25;7393570;19;1615;-38
2024/01/21 08:22:21;;;;;;;;;;;;;;;18.74;52.07;102705.44;7392588;19;1778;-38
2024/01/21 08:24:52;;;;;;;;;;;;;;;18.77;52.12;102724.00;7394130;19;1097;-38
2024/01/21 08:27:21;;;;;;;;;;;;;;;18.84;52.04;102724.53;7389802;19;1849;-37
2024/01/21 08:29:52;;;;;;;;;;;;;;;18.83;51.75;102706.75;7393024;19;1216;-37
2024/01/21 08:32:20;;;;;;;;;;;;;;;18.91;51.78;102717.03;7391107;19;1879;-37
2024/01/21 08:34:48;;;;;;;;;;;;;;;18.95;51.78;102716.75;7391383;19;1560;-37
2024/01/21 08:37:17;;;;;;;;;;;;;;;18.88;51.80;102718.09;7392852;19;1106;-37
2024/01/21 08:39:45;;;;;;;;;;;;;;;18.85;51.85;102716.41;7392299;19;1829;-37
2024/01/21 08:42:13;;;;;;;;;;;;;;;18.78;51.84;102714.13;7390120;19;1908;-37
2024/01/21 08:44:42;;;;;;;;;;;;;;;18.64;52.09;102718.47;7392603;19;1609;-37
2024/01/21 08:47:13;;;;;;;;;;;;;;;18.57;52.32;102725.09;7376587;19;1860;-37
2024/01/21 08:49:41;;;;;;;;;;;;;;;18.69;52.12;102708.34;7390837;19;1647;-37
2024/01/21 08:52:09;;;;;;;;;;;;;;;18.90;51.73;102718.84;7393138;19;1026;-38
2024/01/21 08:54:38;;;;;;;;;;;;;;;18.85;51.70;102716.41;7392761;19;1457;-37
2024/01/21 08:57:07;;;;;;;;;;;;;;;18.84;51.93;102722.75;7390536;19;1841;-37
2024/01/21 08:59:35;;;;;;;;;;;;;;;18.87;51.78;102725.22;7388061;19;2331;-37
2024/01/21 09:02:04;;;;;;;;;;;;;;;18.90;51.74;102726.91;7391662;19;1813;-37
2024/01/21 09:04:34;;;;;;;;;;;;;;;18.95;51.70;102722.13;7391641;19;1745;-39
2024/01/21 09:07:05;;;;;;;;;;;;;;;18.94;51.73;102715.03;7390307;19;2278;-39
2024/01/21 09:09:33;;;;;;;;;;;;;;;18.96;51.69;102729.22;7389308;19;2222;-39
2024/01/21 09:12:01;;;;;;;;;;;;;;;18.91;51.74;102709.84;7393154;19;1014;-47
2024/01/21 09:14:30;;;;;;;;;;;;;;;18.80;51.91;102736.38;7387162;19;2871;-38
2024/01/21 09:16:59;;;;;;;;;;;;;;;18.71;51.97;102745.78;7391493;19;1667;-37
2024/01/21 09:19:27;;;;;;;;;;;;;;;18.68;52.23;102748.63;7390411;19;1955;-37
2024/01/21 09:21:58;;;;;;;;;;;;;;;18.70;52.14;102752.06;7392593;19;1132;-38
2024/01/21 09:24:26;;;;;;;;;;;;;;;18.92;51.69;102716.06;7391923;19;1832;-41
2024/01/21 09:26:55;;;;;;;;;;;;;;;19.00;51.27;102735.25;7391434;19;1841;-37
2024/01/21 09:29:23;;;;;;;;;;;;;;;18.86;51.83;102736.03;7390685;19;1790;-37
2024/01/21 09:31:55;;;;;;;;;;;;;;;18.85;51.76;102728.97;7392488;19;1110;-37
2024/01/21 09:34:23;;;;;;;;;;;;;;;18.83;51.78;102728.19;7392041;19;1039;-38
2024/01/21 09:36:52;;;;;;;;;;;;;;;18.91;51.75;102725.94;7391029;19;1598;-37
2024/01/21 09:39:25;;;;;;;;;;;;;;;18.88;51.87;102724.31;7391289;19;1491;-37
2024/01/21 09:41:54;;;;;;;;;;;;;;;18.96;51.65;102707.78;7390211;19;1646;-37
2024/01/21 09:44:23;;;;;;;;;;;;;;;18.96;51.69;102704.22;7388693;19;1449;-37
2024/01/21 09:46:55;;;;;;;;;;;;;;;18.97;51.84;102712.16;7375604;19;1923;-38
2024/01/21 09:49:24;;;;;;;;;;;;;;;18.72;52.16;102709.13;7390008;19;1519;-39
2024/01/21 09:51:53;;;;;;;;;;;;;;;18.17;53.08;102719.25;7391441;19;1113;-38
2024/01/21 09:54:25;;;;;;;;;;;;;;;17.82;53.63;102697.00;7390991;19;1904;-38
2024/01/21 09:56:54;;;;;;;;;;;;;;;17.60;54.19;102724.84;7391159;19;1527;-37
2024/01/21 09:59:22;;;;;;;;;;;;;;;17.47;55.04;102729.97;7390158;19;1590;-38
2024/01/21 10:01:51;;;;;;;;;;;;;;;17.78;54.33;102709.66;7389424;19;1607;-37
2024/01/21 10:04:20;;;;;;;;;;;;;;;18.57;52.68;102722.44;7390311;19;1733;-37
2024/01/21 10:06:50;;;;;;;;;;;;;;;18.88;51.89;102715.41;7389127;19;1877;-37
2024/01/21 10:09:19;;;;;;;;;;;;;;;18.86;51.62;102703.88;7389392;19;1713;-37
2024/01/21 10:11:56;;;;;;;;;;;;;;;18.86;51.78;102694.03;7389388;19;1596;-37
2024/01/21 10:14:24;;;;;;;;;;;;;;;18.94;51.72;102703.44;7389832;19;1464;-37
2024/01/21 10:16:52;;;;;;;;;;;;;;;18.90;51.72;102701.88;7391095;19;1600;-37
2024/01/21 10:19:27;;;;;;;;;;;;;;;18.95;51.44;102722.13;7389857;19;1836;-37
2024/01/21 10:22:08;;;;;;;;;;;;;;;18.97;51.55;102703.28;7391012;19;1142;-38
2024/01/21 10:24:39;;;;;;;;;;;;;;;18.88;51.71;102707.34;7388230;19;2537;-38
2024/01/21 10:27:10;;;;;;;;;;;;;;;18.78;51.77;102714.13;7394906;19;1855;-39
2024/01/21 10:29:41;;;;;;;;;;;;;;;18.65;52.19;102711.28;7393160;19;1841;-38
2024/01/21 10:32:10;;;;;;;;;;;;;;;18.62;52.14;102709.66;7396765;19;1209;-39
2024/01/21 10:34:38;;;;;;;;;;;;;;;18.75;51.90;102709.81;7396932;19;1726;-38
2024/01/21 10:37:07;;;;;;;;;;;;;;;18.99;51.40;102721.00;7396329;19;1203;-38
2024/01/21 10:39:37;;;;;;;;;;;;;;;18.84;51.58;102703.97;7397134;19;996;-39
2024/01/21 10:42:06;;;;;;;;;;;;;;;18.86;51.70;102711.91;7390903;19;1468;-38
2024/01/21 10:44:39;;;;;;;;;;;;;;;18.89;51.89;102725.16;7395696;19;1471;-39
2024/01/21 10:47:08;;;;;;;;;;;;;;;18.97;51.70;102704.13;7381013;19;1872;-38
2024/01/21 10:49:37;;;;;;;;;;;;;;;19.01;51.29;102700.31;7395489;19;1484;-38
2024/01/21 10:52:08;;;;;;;;;;;;;;;19.01;51.36;102715.53;7396198;19;1272;-38
2024/01/21 10:54:39;;;;;;;;;;;;;;;18.92;51.60;102710.69;7397370;19;1038;-39
2024/01/21 10:57:07;;;;;;;;;;;;;;;18.77;51.85;102717.78;7397015;19;1105;-38
2024/01/21 10:59:38;;;;;;;;;;;;;;;18.68;52.05;102716.47;7392869;19;1923;-38
2024/01/21 11:02:07;;;;;;;;;;;;;;;18.64;51.98;102714.91;7396042;19;1849;-37
2024/01/21 11:04:37;;;;;;;;;;;;;;;18.81;51.92;102711.31;7396072;19;1436;-37
2024/01/21 11:07:06;;;;;;;;;;;;;;;18.94;51.33;102720.41;7393958;19;1859;-37
2024/01/21 11:09:36;;;;;;;;;;;;;;;18.81;51.78;102727.41;7396166;19;1568;-37
2024/01/21 11:12:05;;;;;;;;;;;;;;;18.86;51.94;102712.78;7395992;19;1397;-38
2024/01/21 11:14:32;;;;;;;;;;;;;;;18.93;51.60;102702.56;7396620;19;1189;-37
2024/01/21 11:17:04;;;;;;;;;;;;;;;18.99;51.56;102696.88;7396592;19;1022;-38
2024/01/21 11:19:30;;;;;;;;;;;;;;;19.00;51.41;102708.44;7396409;19;1868;-37
2024/01/21 11:21:58;;;;;;;;;;;;;;;19.05;51.44;102707.22;7395329;19;1778;-37
2024/01/21 11:24:31;;;;;;;;;;;;;;;18.98;51.52;102715.72;7394723;19;1448;-37
2024/01/21 11:27:01;;;;;;;;;;;;;;;18.87;51.72;102697.56;7395946;19;1848;-37
2024/01/21 11:29:30;;;;;;;;;;;;;;;18.77;52.07;102690.97;7395447;19;1517;-37
2024/01/21 11:32:00;;;;;;;;;;;;;;;18.73;51.74;102684.06;7395455;19;1698;-37
2024/01/21 11:34:36;;;;;;;;;;;;;;;18.78;51.78;102688.22;7394039;19;1337;-38
2024/01/21 11:37:04;;;;;;;;;;;;;;;18.92;51.45;102700.88;7394062;19;1828;-37
2024/01/21 11:39:33;;;;;;;;;;;;;;;18.80;51.91;102688.13;7393395;19;1580;-37
2024/01/21 11:42:03;;;;;;;;;;;;;;;18.86;51.88;102690.47;7393633;19;1166;-37
2024/01/21 11:44:31;;;;;;;;;;;;;;;18.90;51.52;102681.31;7394968;19;1210;-38
2024/01/21 11:47:01;;;;;;;;;;;;;;;18.94;51.63;102679.31;7379202;19;1879;-37
2024/01/21 11:49:33;;;;;;;;;;;;;;;18.93;51.52;102678.44;7395063;19;1517;-37
2024/01/21 11:52:05;;;;;;;;;;;;;;;18.99;51.46;102679.91;7395192;19;1733;-37
2024/01/21 11:54:33;;;;;;;;;;;;;;;18.98;51.59;102679.06;7395503;19;1045;-37
2024/01/21 11:57:02;;;;;;;;;;;;;;;18.98;51.47;102700.50;7395270;19;1782;-37
2024/01/21 11:59:31;;;;;;;;;;;;;;;18.87;51.61;102681.50;7394412;19;1928;-37
2024/01/21 12:01:59;;;;;;;;;;;;;;;18.84;51.67;102685.22;7393699;19;1559;-37
2024/01/21 12:04:28;;;;;;;;;;;;;;;18.72;51.94;102687.69;7393816;19;1741;-37
2024/01/21 12:07:00;;;;;;;;;;;;;;;18.77;51.93;102682.94;7393702;19;1393;-38
2024/01/21 12:09:29;;;;;;;;;;;;;;;18.81;51.80;102688.06;7391447;19;1856;-37
2024/01/21 12:11:57;;;;;;;;;;;;;;;18.79;51.84;102699.78;7393707;19;1747;-37
2024/01/21 12:14:25;;;;;;;;;;;;;;;18.85;51.74;102700.34;7393902;19;1822;-37
2024/01/21 12:16:54;;;;;;;;;;;;;;;18.65;51.67;102663.06;7394906;19;1758;-37
2024/01/21 12:19:24;;;;;;;;;;;;;;;18.99;51.38;102698.69;7394170;19;1568;-37
2024/01/21 12:21:53;;;;;;;;;;;;;;;18.99;51.41;102702.22;7395018;19;1055;-38
2024/01/21 12:24:26;;;;;;;;;;;;;;;18.94;51.63;102696.28;7394623;19;1865;-39
2024/01/21 12:26:56;;;;;;;;;;;;;;;18.88;51.47;102707.34;7393331;19;1813;-39
2024/01/21 12:29:24;;;;;;;;;;;;;;;18.79;51.95;102707.84;7391027;19;2229;-38
2024/01/21 12:31:53;;;;;;;;;;;;;;;18.68;52.02;102703.94;7393144;19;1239;-37
2024/01/21 12:34:21;;;;;;;;;;;;;;;18.76;51.69;102702.63;7394872;19;1082;-38
2024/01/21 12:36:50;;;;;;;;;;;;;;;18.93;51.45;102699.03;7393975;19;1487;-37
2024/01/21 12:39:21;;;;;;;;;;;;;;;18.84;51.81;102708.44;7393224;19;1637;-37
2024/01/21 12:41:52;;;;;;;;;;;;;;;18.93;51.49;102717.81;7393317;19;1615;-38
2024/01/21 12:44:21;;;;;;;;;;;;;;;18.98;51.52;102721.06;7392395;19;1613;-37
2024/01/21 12:46:49;;;;;;;;;;;;;;;19.05;51.48;102711.75;7375119;19;2518;-36
2024/01/21 12:49:18;;;;;;;;;;;;;;;18.98;51.47;102715.72;7390057;19;1902;-36
2024/01/21 12:51:46;;;;;;;;;;;;;;;18.97;51.47;102714.00;7393018;19;1125;-36
2024/01/21 12:54:14;;;;;;;;;;;;;;;18.88;51.55;102712.72;7392915;19;1892;-36
2024/01/21 12:56:43;;;;;;;;;;;;;;;18.77;51.74;102720.47;7392198;19;1850;-36